TimeCST,TemperatureF,Dew PointF,Humidity,Sea Level PressureIn,VisibilityMPH,Wind Direction,Wind SpeedMPH,Gust SpeedMPH,PrecipitationIn,Events,Conditions,WindDirDegrees,DateUTC
12:56 AM,48.9,42.1,77,30.32,10.0,Calm,Calm,-,N/A,,Clear,0,2013-11-03 05:56:00
1:56 AM,48.0,42.1,80,30.31,10.0,Calm,Calm,-,N/A,,Clear,0,2013-11-03 06:56:00
1:56 AM,46.0,41.0,83,30.30,10.0,Calm,Calm,-,N/A,,Clear,0,2013-11-03 07:56:00
2:56 AM,46.0,41.0,83,30.28,10.0,Calm,Calm,-,N/A,,Clear,0,2013-11-03 08:56:00
3:56 AM,46.0,41.0,83,30.28,10.0,Calm,Calm,-,N/A,,Clear,0,2013-11-03 09:56:00
4:56 AM,44.1,41.0,89,30.27,10.0,Calm,Calm,-,N/A,,Clear,0,2013-11-03 10:56:00
5:56 AM,46.0,39.9,79,30.27,10.0,East,4.6,-,N/A,,Clear,90,2013-11-03 11:56:00
6:56 AM,44.1,39.9,85,30.28,10.0,ESE,3.5,-,N/A,,Clear,120,2013-11-03 12:56:00
7:56 AM,50.0,42.1,74,30.29,10.0,Calm,Calm,-,N/A,,Clear,0,2013-11-03 13:56:00
8:56 AM,55.9,41.0,57,30.29,10.0,SE,8.1,-,N/A,,Clear,130,2013-11-03 14:56:00
9:56 AM,61.0,39.9,46,30.28,10.0,SE,9.2,-,N/A,,Clear,130,2013-11-03 15:56:00
10:56 AM,64.0,39.0,40,30.27,10.0,SE,10.4,-,N/A,,Clear,130,2013-11-03 16:56:00
11:56 AM,66.0,39.0,37,30.25,10.0,ESE,11.5,17.3,N/A,,Clear,120,2013-11-03 17:56:00
12:56 PM,66.9,39.9,37,30.21,10.0,ESE,11.5,18.4,N/A,,Clear,120,2013-11-03 18:56:00
1:56 PM,68.0,39.0,35,30.17,10.0,SE,11.5,-,N/A,,Clear,130,2013-11-03 19:56:00
2:56 PM,66.0,37.0,34,30.16,10.0,SE,8.1,-,N/A,,Clear,130,2013-11-03 20:56:00
3:56 PM,66.9,37.9,34,30.13,10.0,ESE,11.5,19.6,N/A,,Clear,120,2013-11-03 21:56:00
4:56 PM,64.9,39.9,40,30.14,10.0,ESE,13.8,19.6,N/A,,Clear,120,2013-11-03 22:56:00
5:56 PM,63.0,39.9,43,30.14,10.0,SE,9.2,-,N/A,,Clear,130,2013-11-03 23:56:00
6:56 PM,61.0,39.9,46,30.17,10.0,SE,5.8,-,N/A,,Clear,130,2013-11-04 00:56:00
7:56 PM,60.1,42.1,51,30.18,10.0,SSE,4.6,-,N/A,,Clear,160,2013-11-04 01:56:00
8:56 PM,61.0,41.0,48,30.15,10.0,SE,6.9,-,N/A,,Partly Cloudy,140,2013-11-04 02:56:00
9:56 PM,62.1,46.0,56,30.10,10.0,SE,12.7,19.6,N/A,,Mostly Cloudy,130,2013-11-04 03:56:00
10:56 PM,61.0,50.0,67,30.08,10.0,SE,16.1,24.2,N/A,,Mostly Cloudy,140,2013-11-04 04:56:00